createdAt,value
2023-03-31T00:00:38.060Z,99.99
2023-03-31T00:01:38.761Z,99.99
2023-03-31T00:02:39.738Z,99.99
2023-03-31T00:03:40.207Z,99.99
2023-03-31T00:04:40.534Z,99.99
2023-03-31T00:05:41.022Z,99.99
2023-03-31T00:06:41.935Z,99.99
2023-03-31T00:07:42.780Z,99.99
2023-03-31T00:08:42.926Z,99.99
2023-03-31T00:09:43.624Z,99.99
2023-03-31T00:10:44.724Z,99.99
2023-03-31T00:11:45.675Z,99.99
2023-03-31T00:12:46.207Z,99.99
2023-03-31T00:13:46.854Z,99.99
2023-03-31T00:14:48.026Z,99.99
2023-03-31T00:15:48.753Z,99.99
2023-03-31T00:16:49.720Z,99.99
2023-03-31T00:17:50.776Z,99.99
2023-03-31T00:18:51.514Z,99.99
2023-03-31T00:19:51.963Z,99.99
2023-03-31T00:20:52.844Z,99.99
2023-03-31T00:21:53.540Z,99.99
2023-03-31T00:22:53.944Z,99.99
2023-03-31T00:23:54.651Z,99.99
2023-03-31T00:24:55.368Z,99.99
2023-03-31T00:25:56.045Z,99.99
2023-03-31T00:26:56.495Z,99.99
2023-03-31T00:27:57.211Z,99.99
2023-03-31T00:28:57.699Z,99.99
2023-03-31T00:29:58.031Z,99.99
2023-03-31T00:30:58.797Z,99.99
2023-03-31T00:31:59.958Z,99.99
2023-03-31T00:33:00.644Z,99.99
2023-03-31T00:34:01.734Z,99.99
2023-03-31T00:35:02.312Z,99.99
2023-03-31T00:36:03.146Z,99.99
2023-03-31T00:37:03.492Z,99.99
2023-03-31T00:38:03.872Z,99.99
2023-03-31T00:39:03.992Z,99.99
2023-03-31T00:40:04.608Z,99.99
2023-03-31T00:41:05.316Z,99.99
2023-03-31T00:42:06.031Z,99.99
2023-03-31T00:43:06.638Z,99.99
2023-03-31T00:44:07.932Z,99.99
2023-03-31T00:45:08.001Z,99.99
2023-03-31T00:46:09.121Z,99.99
2023-03-31T00:47:09.549Z,99.99
2023-03-31T00:48:10.473Z,99.99
2023-03-31T00:49:11.116Z,99.99
2023-03-31T00:50:11.822Z,99.99
2023-03-31T00:51:12.329Z,99.99
2023-03-31T00:52:13.023Z,99.99
2023-03-31T00:53:13.332Z,99.99
2023-03-31T00:54:14.233Z,99.99
2023-03-31T00:55:14.923Z,99.99
2023-03-31T00:56:15.646Z,99.99
2023-03-31T00:57:16.243Z,99.99
2023-03-31T00:58:16.541Z,99.99
2023-03-31T00:59:17.028Z,99.99
2023-03-31T01:00:18.006Z,99.99
2023-03-31T01:01:18.563Z,99.99
2023-03-31T01:02:18.603Z,99.99
2023-03-31T01:03:19.297Z,99.99
2023-03-31T01:04:19.988Z,99.99
2023-03-31T01:05:20.493Z,99.99
2023-03-31T01:06:21.002Z,99.99
2023-03-31T01:07:21.483Z,99.99
2023-03-31T01:08:22.202Z,99.99
2023-03-31T01:09:22.741Z,99.99
2023-03-31T01:10:23.648Z,99.99
2023-03-31T01:11:24.338Z,99.99
2023-03-31T01:12:24.884Z,99.99
2023-03-31T01:13:25.735Z,99.99
2023-03-31T01:14:26.419Z,99.99
2023-03-31T01:15:26.564Z,99.99
2023-03-31T01:16:26.923Z,99.99
2023-03-31T01:17:28.074Z,99.99
2023-03-31T01:18:28.748Z,99.99
2023-03-31T01:19:29.061Z,99.99
2023-03-31T01:20:29.791Z,99.99
2023-03-31T01:21:30.500Z,99.99
2023-03-31T01:22:31.157Z,99.99
2023-03-31T01:23:32.193Z,99.99
2023-03-31T01:24:32.707Z,99.99
2023-03-31T01:25:33.439Z,99.99
2023-03-31T01:26:34.130Z,99.99
2023-03-31T01:27:34.850Z,99.99
2023-03-31T01:28:35.582Z,99.99
2023-03-31T01:29:36.270Z,99.99
2023-03-31T01:30:37.030Z,99.99
2023-03-31T01:31:37.611Z,99.99
2023-03-31T01:32:38.192Z,99.99
2023-03-31T01:33:38.867Z,99.99
2023-03-31T01:34:38.794Z,99.99
2023-03-31T01:35:40.060Z,99.99
2023-03-31T01:36:40.881Z,99.99
2023-03-31T01:37:41.869Z,99.99
2023-03-31T01:38:42.633Z,99.99
2023-03-31T01:39:43.543Z,99.99
2023-03-31T01:40:43.833Z,99.99
2023-03-31T01:41:44.303Z,99.99
2023-03-31T01:42:45.218Z,99.99
2023-03-31T01:43:45.823Z,99.99
2023-03-31T01:44:46.551Z,99.99
2023-03-31T01:45:47.510Z,99.99
2023-03-31T01:46:48.270Z,99.99
2023-03-31T01:47:48.489Z,99.99
2023-03-31T01:48:49.019Z,99.99
2023-03-31T01:49:49.828Z,99.99
2023-03-31T01:50:50.919Z,99.99
2023-03-31T01:51:51.963Z,99.99
2023-03-31T01:52:51.888Z,99.99
2023-03-31T01:53:52.742Z,99.99
2023-03-31T01:54:53.229Z,99.99
2023-03-31T01:55:53.729Z,99.99
2023-03-31T01:56:54.077Z,99.99
2023-03-31T01:57:54.737Z,99.99
2023-03-31T01:58:55.705Z,99.99
2023-03-31T01:59:56.385Z,99.99
2023-03-31T02:00:57.328Z,99.99
2023-03-31T02:01:58.204Z,99.99
2023-03-31T02:02:58.824Z,99.99
2023-03-31T02:03:59.761Z,99.99
2023-03-31T02:05:00.761Z,99.99
2023-03-31T02:06:01.514Z,99.99
2023-03-31T02:07:01.728Z,99.99
2023-03-31T02:08:02.216Z,99.99
2023-03-31T02:09:03.179Z,99.99
2023-03-31T02:10:03.101Z,99.99
2023-03-31T02:11:03.783Z,99.99
2023-03-31T02:12:03.667Z,99.99
2023-03-31T02:13:04.598Z,99.99
2023-03-31T02:14:04.671Z,99.99
2023-03-31T02:15:05.339Z,99.99
2023-03-31T02:16:05.820Z,99.99
2023-03-31T02:17:06.246Z,99.99
2023-03-31T02:18:06.859Z,99.99
2023-03-31T02:19:06.984Z,99.99
2023-03-31T02:20:07.723Z,99.99
2023-03-31T02:21:08.687Z,99.99
2023-03-31T02:22:09.228Z,99.99
2023-03-31T02:23:09.736Z,99.99
2023-03-31T02:24:10.504Z,99.99
2023-03-31T02:25:11.444Z,99.99
2023-03-31T02:26:12.552Z,99.99
2023-03-31T02:27:13.250Z,99.99
2023-03-31T02:28:14.242Z,99.99
2023-03-31T02:29:15.178Z,99.99
2023-03-31T02:30:15.466Z,99.99
2023-03-31T02:31:15.913Z,99.99
2023-03-31T02:32:16.575Z,99.99
2023-03-31T02:33:17.161Z,99.99
2023-03-31T02:34:18.177Z,99.99
2023-03-31T02:35:18.303Z,99.99
2023-03-31T02:36:18.916Z,99.99
2023-03-31T02:37:19.849Z,99.99
2023-03-31T02:38:20.340Z,99.99
2023-03-31T02:39:21.239Z,99.99
2023-03-31T02:40:22.195Z,99.99
2023-03-31T02:41:23.152Z,99.99
2023-03-31T02:42:23.886Z,99.99
2023-03-31T02:43:24.029Z,99.99
2023-03-31T02:44:24.720Z,99.99
2023-03-31T02:45:25.214Z,99.99
2023-03-31T02:46:25.584Z,99.99
2023-03-31T02:47:25.634Z,99.99
2023-03-31T02:48:26.467Z,99.99
2023-03-31T02:49:27.378Z,99.99
2023-03-31T02:50:27.478Z,99.99
2023-03-31T02:51:27.707Z,99.99
2023-03-31T02:52:27.793Z,99.99
2023-03-31T02:53:28.096Z,99.99
2023-03-31T02:54:29.377Z,99.99
2023-03-31T02:55:29.657Z,99.99
2023-03-31T02:56:30.675Z,99.99
2023-03-31T02:57:31.169Z,99.99
2023-03-31T02:58:30.931Z,99.99
2023-03-31T02:59:32.048Z,99.99
2023-03-31T03:00:32.598Z,99.99
2023-03-31T03:01:33.542Z,99.99
2023-03-31T03:02:34.888Z,99.99
2023-03-31T03:03:35.227Z,99.99
2023-03-31T03:04:35.564Z,99.99
2023-03-31T03:05:36.106Z,99.99
2023-03-31T03:06:36.462Z,99.99
2023-03-31T03:07:37.352Z,99.99
2023-03-31T03:08:37.666Z,99.99
2023-03-31T03:09:38.366Z,99.99
2023-03-31T03:10:38.256Z,99.99
2023-03-31T03:11:39.155Z,99.99
2023-03-31T03:12:39.643Z,99.99
2023-03-31T03:13:39.933Z,99.99
2023-03-31T03:14:40.340Z,99.99
2023-03-31T03:15:40.645Z,99.99
2023-03-31T03:16:41.542Z,99.99
2023-03-31T03:17:42.433Z,99.99
2023-03-31T03:18:42.822Z,99.99
2023-03-31T03:19:42.701Z,99.99
2023-03-31T03:20:43.438Z,99.99
2023-03-31T03:21:44.600Z,99.99
2023-03-31T03:22:45.574Z,99.99
2023-03-31T03:23:46.475Z,99.99
2023-03-31T03:24:47.296Z,99.99
2023-03-31T03:25:47.207Z,99.99
2023-03-31T03:26:47.742Z,99.99
2023-03-31T03:27:48.325Z,99.99
2023-03-31T03:28:48.302Z,99.99
2023-03-31T03:29:49.028Z,99.99
2023-03-31T03:30:49.545Z,99.99
2023-03-31T03:31:50.664Z,99.99
2023-03-31T03:32:51.434Z,99.99
2023-03-31T03:33:52.448Z,99.99
2023-03-31T03:34:52.699Z,99.99
2023-03-31T03:35:53.628Z,99.99
2023-03-31T03:36:53.769Z,99.99
2023-03-31T03:37:54.521Z,99.99
2023-03-31T03:38:54.819Z,99.99
2023-03-31T03:39:55.624Z,99.99
2023-03-31T03:40:56.197Z,99.99
2023-03-31T03:41:57.273Z,99.99
2023-03-31T03:42:58.198Z,99.99
2023-03-31T03:43:58.713Z,99.99
2023-03-31T03:44:59.549Z,99.99
2023-03-31T03:46:00.072Z,99.99
2023-03-31T03:47:00.776Z,99.99
2023-03-31T03:48:01.565Z,99.99
2023-03-31T03:49:01.663Z,99.99
2023-03-31T03:50:02.185Z,99.99
2023-03-31T03:51:02.657Z,99.99
2023-03-31T03:52:03.349Z,99.99
2023-03-31T03:53:04.031Z,99.99
2023-03-31T03:54:04.724Z,99.99
2023-03-31T03:55:06.027Z,99.99
2023-03-31T03:56:06.636Z,99.99
2023-03-31T03:57:06.992Z,99.99
2023-03-31T04:05:13.456Z,99.99
2023-03-31T04:07:15.754Z,99.99
2023-03-31T04:08:13.680Z,99.99
2023-03-31T04:09:14.373Z,99.99
2023-03-31T04:10:14.631Z,99.99
2023-03-31T04:11:16.684Z,99.99
2023-03-31T04:12:15.561Z,99.99
2023-03-31T04:13:16.260Z,99.99
2023-03-31T04:14:17.187Z,99.99
2023-03-31T04:15:17.606Z,99.99
2023-03-31T04:16:18.209Z,99.99
2023-03-31T04:17:18.147Z,99.99
2023-03-31T04:18:20.296Z,99.99
2023-03-31T04:19:18.993Z,99.99
2023-03-31T04:20:19.279Z,99.99
2023-03-31T04:21:20.027Z,99.99
2023-03-31T04:22:20.130Z,99.99
2023-03-31T04:23:20.874Z,99.99
2023-03-31T04:24:22.070Z,99.99
2023-03-31T04:25:22.281Z,99.99
2023-03-31T04:26:22.303Z,99.99
2023-03-31T04:27:22.775Z,99.99
2023-03-31T04:28:23.282Z,99.99
2023-03-31T04:29:23.577Z,99.99
2023-03-31T04:30:24.325Z,99.99
2023-03-31T04:31:24.854Z,99.99
2023-03-31T04:32:25.601Z,99.99
2023-03-31T04:33:26.300Z,99.99
2023-03-31T04:34:26.972Z,99.99
2023-03-31T04:35:28.224Z,99.99
2023-03-31T04:36:29.045Z,99.99
2023-03-31T04:37:29.356Z,99.99
2023-03-31T04:38:30.445Z,99.99
2023-03-31T04:39:31.192Z,99.99
2023-03-31T04:40:32.195Z,99.99
2023-03-31T04:41:33.089Z,99.99
2023-03-31T04:42:33.802Z,99.99
2023-03-31T04:43:34.502Z,99.99
2023-03-31T04:44:35.229Z,99.99
2023-03-31T04:45:35.757Z,99.99
2023-03-31T04:46:36.101Z,99.99
2023-03-31T04:47:37.227Z,99.99
2023-03-31T04:48:36.997Z,99.99
2023-03-31T04:49:37.492Z,99.99
2023-03-31T04:50:38.012Z,99.99
2023-03-31T04:51:38.535Z,99.99
2023-03-31T04:52:39.044Z,99.99
2023-03-31T04:53:38.985Z,99.99
2023-03-31T04:54:39.721Z,99.99
2023-03-31T04:55:40.515Z,99.99
2023-03-31T04:56:41.206Z,99.99
2023-03-31T04:57:41.903Z,99.99
2023-03-31T04:58:42.410Z,99.99
2023-03-31T04:59:42.728Z,99.99
2023-03-31T05:00:43.247Z,99.99
2023-03-31T05:01:43.909Z,99.99
2023-03-31T05:02:45.099Z,99.99
2023-03-31T05:03:45.701Z,99.99
2023-03-31T05:04:46.357Z,99.99
2023-03-31T05:05:46.829Z,99.99
2023-03-31T05:06:47.841Z,99.99
2023-03-31T05:07:48.363Z,99.99
2023-03-31T05:08:49.681Z,99.99
2023-03-31T05:09:50.580Z,99.99
2023-03-31T05:10:51.347Z,99.99
2023-03-31T05:11:51.857Z,99.99
2023-03-31T05:12:52.178Z,99.99
2023-03-31T05:13:52.071Z,99.99
2023-03-31T05:14:52.689Z,99.99
2023-03-31T05:15:53.484Z,99.99
2023-03-31T05:16:53.569Z,99.99
2023-03-31T05:17:53.797Z,99.99
2023-03-31T05:18:54.735Z,99.99
2023-03-31T05:19:54.917Z,99.99
2023-03-31T05:20:55.715Z,99.99
2023-03-31T05:21:56.425Z,99.99
2023-03-31T05:22:56.933Z,99.99
2023-03-31T05:23:57.902Z,99.99
2023-03-31T05:24:58.225Z,99.99
2023-03-31T05:25:58.617Z,99.99
2023-03-31T05:26:59.108Z,99.99
2023-03-31T05:27:59.845Z,99.99
2023-03-31T05:29:00.534Z,99.99
2023-03-31T05:30:01.421Z,99.99
2023-03-31T05:31:02.443Z,99.99
2023-03-31T05:32:03.106Z,99.99
2023-03-31T05:33:04.176Z,99.99
2023-03-31T05:34:04.987Z,99.99
2023-03-31T05:35:05.077Z,99.99
2023-03-31T05:36:06.244Z,99.99
2023-03-31T05:37:07.076Z,99.99
2023-03-31T05:38:07.783Z,99.99
2023-03-31T05:39:08.930Z,99.99
2023-03-31T05:40:09.642Z,99.99
2023-03-31T05:41:09.951Z,99.99
2023-03-31T05:42:09.990Z,99.99
2023-03-31T05:43:10.913Z,99.99
2023-03-31T05:44:11.795Z,99.99
2023-03-31T05:45:14.476Z,99.99
2023-03-31T05:47:13.086Z,99.99
2023-03-31T05:48:14.065Z,99.99
2023-03-31T05:49:14.967Z,99.99
2023-03-31T05:50:15.401Z,99.99
2023-03-31T05:51:16.009Z,99.99
2023-03-31T05:52:16.928Z,99.99
2023-03-31T05:53:17.875Z,99.99
2023-03-31T05:54:18.649Z,99.99
2023-03-31T05:55:19.234Z,99.99
2023-03-31T05:56:19.451Z,99.99
2023-03-31T05:57:20.105Z,99.99
2023-03-31T05:58:20.889Z,99.99
2023-03-31T05:59:21.389Z,99.99
2023-03-31T06:00:21.728Z,99.99
2023-03-31T06:01:23.763Z,99.99
2023-03-31T06:02:22.923Z,99.99
2023-03-31T06:03:23.535Z,99.99
2023-03-31T06:04:24.815Z,99.99
2023-03-31T06:05:24.986Z,99.99
2023-03-31T06:06:25.613Z,99.99
2023-03-31T06:07:25.605Z,99.99
2023-03-31T06:08:26.119Z,99.99
2023-03-31T06:09:26.250Z,99.99
2023-03-31T06:10:27.191Z,99.99
2023-03-31T06:11:27.929Z,99.99
2023-03-31T06:12:28.486Z,99.99
2023-03-31T06:13:29.622Z,99.99
2023-03-31T06:14:30.558Z,99.99
2023-03-31T06:15:30.675Z,99.99
2023-03-31T06:16:31.161Z,99.99
2023-03-31T06:17:31.814Z,99.99
2023-03-31T06:18:31.939Z,99.99
2023-03-31T06:19:32.692Z,99.99
2023-03-31T06:20:33.922Z,99.99
2023-03-31T06:21:33.656Z,99.99
2023-03-31T06:22:34.365Z,99.99
2023-03-31T06:23:35.338Z,99.99
2023-03-31T06:24:35.533Z,99.99
2023-03-31T06:25:52.974Z,99.99
2023-03-31T06:27:40.688Z,99.99
2023-03-31T06:28:41.235Z,99.99
2023-03-31T06:29:42.468Z,99.99
2023-03-31T06:30:42.956Z,99.99
2023-03-31T06:31:43.546Z,99.99
2023-03-31T06:32:44.496Z,99.99
2023-03-31T06:33:44.450Z,99.99
2023-03-31T06:34:45.001Z,99.99
2023-03-31T06:35:45.533Z,99.99
2023-03-31T06:36:46.294Z,99.99
2023-03-31T06:37:47.235Z,99.99
2023-03-31T06:38:47.135Z,99.99
2023-03-31T06:39:48.090Z,99.99
2023-03-31T06:40:48.790Z,99.99
2023-03-31T06:41:49.531Z,99.99
2023-03-31T06:42:50.234Z,99.99
2023-03-31T06:43:50.779Z,99.99
2023-03-31T06:44:51.758Z,99.99
2023-03-31T06:45:53.856Z,99.99
2023-03-31T06:46:53.316Z,99.99
2023-03-31T06:47:54.046Z,99.99
2023-03-31T06:48:54.220Z,99.99
2023-03-31T06:49:54.970Z,99.99
2023-03-31T06:50:55.867Z,99.99
2023-03-31T06:51:56.985Z,99.99
2023-03-31T06:52:57.752Z,99.99
2023-03-31T06:53:58.461Z,99.99
2023-03-31T06:54:59.017Z,99.99
2023-03-31T06:56:00.060Z,99.99
2023-03-31T06:57:00.919Z,99.99
2023-03-31T06:58:01.042Z,99.99
2023-03-31T06:59:01.790Z,99.99
2023-03-31T07:00:02.708Z,99.99
2023-03-31T07:01:03.283Z,99.99
2023-03-31T07:02:04.578Z,99.99
2023-03-31T07:03:05.793Z,99.75
2023-03-31T07:04:05.834Z,99.65
2023-03-31T07:05:06.561Z,99.75
2023-03-31T07:06:06.736Z,99.27
2023-03-31T07:07:07.424Z,98.13
2023-03-31T07:08:08.147Z,98.41
2023-03-31T07:09:08.849Z,98.89
2023-03-31T07:10:09.791Z,98.51
2023-03-31T07:11:11.464Z,98.03
2023-03-31T07:12:11.708Z,98.51
2023-03-31T07:13:11.943Z,98.7
2023-03-31T07:14:12.435Z,98.99
2023-03-31T07:15:13.335Z,98.89
2023-03-31T07:16:14.660Z,99.55
2023-03-31T07:17:14.796Z,98.99
2023-03-31T07:18:15.945Z,99.18
2023-03-31T07:19:16.220Z,99.99
2023-03-31T07:20:16.905Z,99.99
2023-03-31T07:21:18.183Z,99.99
2023-03-31T07:22:18.324Z,99.99
2023-03-31T07:23:19.054Z,99.99
2023-03-31T07:24:19.752Z,99.99
2023-03-31T07:25:20.749Z,99.99
2023-03-31T07:26:21.461Z,98.79
2023-03-31T07:27:22.971Z,98.99
2023-03-31T07:28:22.193Z,99.18
2023-03-31T07:29:22.148Z,99.37
2023-03-31T07:30:23.091Z,99.37
2023-03-31T07:31:24.283Z,99.37
2023-03-31T07:32:25.773Z,99.27
2023-03-31T07:33:24.860Z,99.18
2023-03-31T07:34:25.365Z,99.46
2023-03-31T07:35:25.569Z,99.55
2023-03-31T07:36:26.865Z,99.99
2023-03-31T07:38:26.777Z,99.99
2023-03-31T07:39:27.486Z,99.99
2023-03-31T07:40:28.445Z,99.99
2023-03-31T07:41:28.568Z,99.99
2023-03-31T07:42:29.501Z,99.99
2023-03-31T07:43:30.530Z,99.99
2023-03-31T07:44:30.826Z,99.99
2023-03-31T07:45:31.805Z,99.99
2023-03-31T07:46:31.977Z,99.99
2023-03-31T07:47:33.335Z,99.99
2023-03-31T07:48:33.774Z,99.99
2023-03-31T07:49:34.504Z,99.99
2023-03-31T07:50:35.802Z,99.99
2023-03-31T07:51:36.522Z,99.99
2023-03-31T07:52:37.243Z,99.99
2023-03-31T07:53:37.293Z,99.99
2023-03-31T07:54:38.041Z,99.99
2023-03-31T07:55:39.002Z,99.99
2023-03-31T07:56:39.495Z,99.99
2023-03-31T07:57:40.166Z,99.99
2023-03-31T07:58:40.446Z,99.99
2023-03-31T07:59:41.394Z,99.99
2023-03-31T08:00:42.362Z,99.99
2023-03-31T08:01:43.262Z,99.99
2023-03-31T08:02:44.235Z,99.99
2023-03-31T08:03:43.965Z,99.99
2023-03-31T08:04:45.135Z,99.99
2023-03-31T08:05:44.891Z,99.99
2023-03-31T08:06:45.330Z,99.99
2023-03-31T08:07:45.988Z,99.99
2023-03-31T08:08:46.938Z,99.99
2023-03-31T08:09:47.566Z,99.99
2023-03-31T08:10:48.112Z,99.99
2023-03-31T08:11:51.433Z,99.99
2023-03-31T08:12:50.175Z,99.99
2023-03-31T08:13:50.693Z,99.99
2023-03-31T08:14:51.603Z,99.99
2023-03-31T08:15:52.144Z,99.99
2023-03-31T08:16:53.379Z,99.99
2023-03-31T08:17:53.510Z,99.99
2023-03-31T08:18:54.198Z,99.99
2023-03-31T08:19:55.155Z,99.99
2023-03-31T08:20:56.221Z,99.99
2023-03-31T08:21:56.445Z,99.99
2023-03-31T08:22:56.984Z,99.99
2023-03-31T08:23:58.205Z,99.99
2023-03-31T08:24:58.604Z,99.99
2023-03-31T08:25:58.904Z,99.99
2023-03-31T08:26:59.088Z,99.99
2023-03-31T08:27:59.969Z,99.99
2023-03-31T08:29:00.720Z,99.99
2023-03-31T08:30:01.648Z,99.99
2023-03-31T08:31:01.831Z,99.99
2023-03-31T08:32:02.204Z,99.99
2023-03-31T08:33:02.853Z,99.95
2023-03-31T08:34:03.679Z,99.38
2023-03-31T08:35:04.595Z,98.99
2023-03-31T08:36:05.885Z,98.04
2023-03-31T08:37:06.261Z,99.04
2023-03-31T08:38:07.377Z,98.47
2023-03-31T08:39:08.340Z,98.33
2023-03-31T08:40:09.080Z,98.8
2023-03-31T08:41:09.329Z,99.04
2023-03-31T08:42:11.805Z,97.42
2023-03-31T08:43:10.412Z,95.36
2023-03-31T08:44:11.334Z,96.03
2023-03-31T08:45:12.242Z,97.18
2023-03-31T08:46:13.566Z,98.08
2023-03-31T08:47:13.262Z,99.62
2023-03-31T08:48:13.813Z,99.99
2023-03-31T08:49:14.129Z,99.85
2023-03-31T08:50:14.851Z,99.99
2023-03-31T08:51:15.806Z,99.99
2023-03-31T08:52:16.156Z,99.99
2023-03-31T08:53:17.309Z,99.99
2023-03-31T08:54:20.369Z,99.99
2023-03-31T08:55:18.100Z,99.99
2023-03-31T08:56:18.920Z,99.99
2023-03-31T08:57:19.973Z,99.99
2023-03-31T08:58:20.160Z,99.99
2023-03-31T08:59:20.510Z,99.99
2023-03-31T09:00:21.737Z,99.99
2023-03-31T09:01:22.499Z,99.99
2023-03-31T09:02:23.795Z,99.99
2023-03-31T09:03:24.495Z,99.99
2023-03-31T09:04:24.706Z,99.99
2023-03-31T09:05:25.730Z,99.99
2023-03-31T09:06:25.977Z,99.99
2023-03-31T09:07:26.406Z,99.99
2023-03-31T09:08:27.062Z,99.99
2023-03-31T09:09:28.369Z,99.99
2023-03-31T09:10:28.916Z,99.99
2023-03-31T09:11:29.905Z,99.99
2023-03-31T09:12:30.620Z,99.99
2023-03-31T09:13:31.606Z,99.99
2023-03-31T09:14:32.462Z,99.99
2023-03-31T09:15:33.166Z,99.99
2023-03-31T09:16:33.415Z,99.99
2023-03-31T09:17:33.446Z,99.99
2023-03-31T09:18:34.016Z,99.99
2023-03-31T09:19:34.375Z,99.99
2023-03-31T09:20:35.357Z,99.99
2023-03-31T09:21:36.487Z,99.99
2023-03-31T09:22:37.068Z,99.99
2023-03-31T09:23:38.395Z,99.99
2023-03-31T09:24:38.669Z,99.99
2023-03-31T09:25:39.393Z,99.99
2023-03-31T09:26:40.451Z,99.99
2023-03-31T09:27:41.222Z,99.99
2023-03-31T09:28:42.132Z,99.99
2023-03-31T09:29:43.136Z,99.99
2023-03-31T09:30:42.852Z,99.99
2023-03-31T09:31:43.746Z,99.99
2023-03-31T09:32:43.814Z,99.99
2023-03-31T09:33:44.853Z,99.99
2023-03-31T09:34:45.796Z,99.99
2023-03-31T09:35:46.519Z,99.99
2023-03-31T09:36:46.148Z,99.99
2023-03-31T09:37:47.101Z,99.99
2023-03-31T09:38:47.977Z,99.99
2023-03-31T09:39:48.839Z,99.99
2023-03-31T09:40:49.852Z,99.99
2023-03-31T09:41:49.970Z,99.99
2023-03-31T09:42:50.954Z,99.99
2023-03-31T09:43:51.142Z,99.99
2023-03-31T09:44:51.334Z,99.99
2023-03-31T09:46:10.645Z,99.99
2023-03-31T09:46:52.905Z,99.99
2023-03-31T09:47:53.943Z,99.99
2023-03-31T09:48:54.501Z,99.99
2023-03-31T09:49:59.773Z,99.99
2023-03-31T09:50:55.710Z,99.99
2023-03-31T09:51:56.776Z,99.99
2023-03-31T09:52:57.416Z,99.99
2023-03-31T09:53:58.344Z,99.99
2023-03-31T09:54:58.275Z,99.99
2023-03-31T09:55:58.980Z,99.99
2023-03-31T09:56:59.744Z,99.99
2023-03-31T09:57:59.899Z,99.99
2023-03-31T09:59:00.932Z,99.99
2023-03-31T10:00:01.881Z,99.99
2023-03-31T10:01:03.068Z,99.99
2023-03-31T10:02:03.139Z,99.99
2023-03-31T10:03:03.153Z,99.99
2023-03-31T10:04:04.383Z,99.99
2023-03-31T10:05:04.563Z,99.99
2023-03-31T10:06:05.315Z,99.99
2023-03-31T10:07:06.047Z,99.99
2023-03-31T10:08:06.804Z,99.99
2023-03-31T10:09:07.341Z,99.99
2023-03-31T10:10:08.212Z,99.99
2023-03-31T10:11:08.898Z,99.99
2023-03-31T10:12:08.706Z,99.99
2023-03-31T10:13:09.026Z,99.99
2023-03-31T10:14:10.184Z,99.99
2023-03-31T10:15:11.104Z,99.99
2023-03-31T10:16:11.465Z,99.99
2023-03-31T10:17:11.811Z,99.99
2023-03-31T10:18:12.570Z,99.99
2023-03-31T10:19:12.730Z,99.99
2023-03-31T10:20:12.828Z,99.99
2023-03-31T10:21:14.131Z,99.99
2023-03-31T10:22:15.431Z,99.99
2023-03-31T10:23:15.282Z,99.99
2023-03-31T10:24:15.842Z,99.99
2023-03-31T10:25:17.149Z,99.99
2023-03-31T10:26:17.691Z,99.99
2023-03-31T10:27:19.932Z,99.99
2023-03-31T10:28:19.178Z,99.99
2023-03-31T10:29:19.476Z,99.99
2023-03-31T10:30:19.420Z,99.99
2023-03-31T10:31:20.018Z,99.99
2023-03-31T10:32:20.918Z,99.99
2023-03-31T10:33:28.006Z,99.99
2023-03-31T10:34:23.350Z,99.99
2023-03-31T10:35:24.202Z,99.99
2023-03-31T10:36:25.313Z,99.99
2023-03-31T10:37:26.009Z,99.99
2023-03-31T10:38:26.730Z,99.99
2023-03-31T10:39:27.147Z,99.99
2023-03-31T10:40:28.137Z,99.99
2023-03-31T10:41:29.278Z,99.99
2023-03-31T10:42:29.363Z,99.99
2023-03-31T10:43:30.054Z,99.99
2023-03-31T10:44:30.833Z,99.99
2023-03-31T10:45:41.844Z,99.99
2023-03-31T10:46:32.017Z,99.99
2023-03-31T10:47:33.026Z,99.99
2023-03-31T10:48:33.662Z,99.99
2023-03-31T10:49:34.311Z,99.99
2023-03-31T10:50:35.226Z,99.52
2023-03-31T10:51:36.017Z,99.1
2023-03-31T10:52:36.930Z,99.57
2023-03-31T10:53:37.824Z,99.38
2023-03-31T10:54:37.753Z,97.04
2023-03-31T10:55:38.733Z,96.94
2023-03-31T10:56:39.240Z,97.52
2023-03-31T10:57:40.084Z,97.52
2023-03-31T10:58:40.322Z,97.42
2023-03-31T10:59:43.289Z,97.9
2023-03-31T11:00:43.852Z,97.52
2023-03-31T11:01:44.730Z,97.52
2023-03-31T11:02:45.424Z,95.84
2023-03-31T11:03:46.532Z,95.46
2023-03-31T11:04:47.463Z,96.13
2023-03-31T11:05:47.770Z,96.13
2023-03-31T11:06:48.686Z,96.13
2023-03-31T11:07:49.399Z,92.16
2023-03-31T11:08:50.461Z,92.25
2023-03-31T11:09:50.855Z,93.79
2023-03-31T11:10:51.595Z,95.22
2023-03-31T11:11:52.341Z,95.17
2023-03-31T11:12:53.306Z,95.17
2023-03-31T11:13:53.417Z,95.94
2023-03-31T11:14:54.385Z,95.84
2023-03-31T11:15:55.032Z,96.42
2023-03-31T11:16:55.418Z,96.03
2023-03-31T11:17:55.387Z,95.75
2023-03-31T11:18:56.474Z,94.51
2023-03-31T11:19:57.125Z,95.17
2023-03-31T11:20:57.629Z,96.03
2023-03-31T11:21:58.168Z,95.79
2023-03-31T11:22:59.068Z,96.17
2023-03-31T11:23:59.564Z,95.41
2023-03-31T11:25:00.749Z,95.32
2023-03-31T11:26:01.599Z,96.84
2023-03-31T11:27:02.494Z,97.99
2023-03-31T11:28:03.294Z,98.9
2023-03-31T11:29:03.834Z,99.37
2023-03-31T11:30:04.367Z,99.37
2023-03-31T11:31:05.533Z,98.8
2023-03-31T11:32:05.846Z,99.47
2023-03-31T11:33:06.253Z,98.8
2023-03-31T11:34:06.345Z,99.23
2023-03-31T11:35:07.208Z,99.99
2023-03-31T11:36:08.018Z,99.9
2023-03-31T11:37:08.254Z,97.51
2023-03-31T11:38:09.031Z,95.32
2023-03-31T11:39:09.301Z,95.89
2023-03-31T11:40:10.133Z,97.42
2023-03-31T11:41:11.364Z,96.7
2023-03-31T11:42:11.881Z,96.61
2023-03-31T11:43:12.654Z,97.27
2023-03-31T11:44:13.569Z,95.17
2023-03-31T11:45:14.497Z,93.55
2023-03-31T11:46:15.762Z,92.36
2023-03-31T11:47:15.827Z,91.5
2023-03-31T11:48:16.629Z,90.26
2023-03-31T11:49:17.655Z,90.07
2023-03-31T11:50:18.380Z,86.92
2023-03-31T11:51:18.331Z,84.72
2023-03-31T11:52:18.831Z,83.77
2023-03-31T11:53:19.762Z,82.95
2023-03-31T11:54:20.109Z,82.67
2023-03-31T11:55:21.020Z,81.43
2023-03-31T11:56:22.010Z,79.61
2023-03-31T11:57:22.174Z,79.9
2023-03-31T11:58:22.247Z,79.52
2023-03-31T11:59:22.804Z,78.37
2023-03-31T12:00:23.646Z,79.14
2023-03-31T12:01:24.549Z,78.85
2023-03-31T12:02:24.685Z,78.66
2023-03-31T12:03:25.144Z,79.52
2023-03-31T12:04:25.143Z,78.94
2023-03-31T12:05:25.979Z,79.61
2023-03-31T12:06:27.261Z,79.9
2023-03-31T12:07:27.512Z,80.66
2023-03-31T12:08:28.473Z,79.43
2023-03-31T12:09:28.986Z,78.75
2023-03-31T12:10:29.404Z,76.94
2023-03-31T12:11:30.355Z,77.03
2023-03-31T12:12:31.347Z,77.03
2023-03-31T12:13:31.904Z,77.61
2023-03-31T12:14:32.635Z,77.7
2023-03-31T12:15:33.367Z,78.37
2023-03-31T12:16:33.981Z,78.09
2023-03-31T12:17:35.095Z,78.75
2023-03-31T12:18:35.022Z,79.61
2023-03-31T12:19:35.314Z,79.61
2023-03-31T12:20:35.749Z,81.81
2023-03-31T12:21:36.697Z,82.38
2023-03-31T12:22:37.521Z,83.18
2023-03-31T12:23:37.836Z,82.29
2023-03-31T12:24:38.536Z,82.29
2023-03-31T12:25:39.288Z,82.29
2023-03-31T12:26:39.994Z,83.43
2023-03-31T12:27:40.321Z,83.24
2023-03-31T12:28:40.064Z,82.76
2023-03-31T12:29:40.565Z,85.25
2023-03-31T12:30:40.807Z,86.3
2023-03-31T12:31:41.614Z,83.53
2023-03-31T12:32:42.614Z,82.57
2023-03-31T12:33:42.690Z,82.29
2023-03-31T12:34:43.680Z,82.29
2023-03-31T12:35:44.749Z,82.95
2023-03-31T12:36:45.004Z,83.72
2023-03-31T12:37:45.341Z,84.48
2023-03-31T12:38:46.038Z,84.1
2023-03-31T12:39:46.549Z,84
2023-03-31T12:40:47.185Z,84.58
2023-03-31T12:41:47.366Z,85.15
2023-03-31T12:42:48.085Z,85.72
2023-03-31T12:43:48.968Z,85.82
2023-03-31T12:44:49.508Z,85.15
2023-03-31T12:45:50.653Z,84.39
2023-03-31T12:46:51.472Z,84.48
2023-03-31T12:47:52.204Z,83.67
2023-03-31T12:48:55.281Z,83.77
2023-03-31T12:49:53.652Z,83.87
2023-03-31T12:50:54.304Z,84.06
2023-03-31T12:51:54.459Z,83.96
2023-03-31T12:52:55.385Z,86.54
2023-03-31T12:53:56.117Z,89.97
2023-03-31T12:54:56.800Z,93.65
2023-03-31T12:55:57.358Z,98.18
2023-03-31T12:56:57.668Z,99.99
2023-03-31T12:57:57.763Z,99.99
2023-03-31T12:58:58.732Z,99.99
2023-03-31T12:59:59.477Z,99.99
2023-03-31T13:01:00.234Z,99.99
2023-03-31T13:02:00.530Z,99.99
2023-03-31T13:03:01.666Z,99.99
2023-03-31T13:04:02.342Z,99.99
2023-03-31T13:05:03.085Z,99.99
2023-03-31T13:06:03.604Z,99.99
2023-03-31T13:07:07.587Z,99.99
2023-03-31T13:08:05.038Z,99.99
2023-03-31T13:09:06.127Z,99.99
2023-03-31T13:10:06.229Z,99.99
2023-03-31T13:11:07.166Z,99.99
2023-03-31T13:12:07.360Z,99.99
2023-03-31T13:13:07.864Z,99.99